Latest Weather Observations for Leinster

IDW60801

Issued at 9:03 pm WST Monday 18 June 2018 (issued every 10 minutes, with the page automatically refreshed every 10 minutes)

About weather observations | Map of weather stations | Latest weather observations for WA | Other Formats
Station Details ID: 012314 Name: LEINSTER AERO Lat: -27.84 Lon: 120.70 Height: 497.0 m
Data from the previous 72 hours. | See also: Recent months at Leinster
Date/Time
WST
Temp
°C
App
Temp
°C
Dew
Point
°C
Rel
Hum
%
Delta-T
°C
Wind Press
QNH
hPa
Press
MSL
hPa
Rain since
9am
mm
Dir  Spd
km/h
Gust
km/h
Spd
kts
Gust
kts
18/09:00pm 10.8 9.8 10.3 97 0.3 S 6 7 3 4 1021.8 1021.4 1.6
18/08:30pm 10.9 9.7 10.4 97 0.3 S 7 11 4 6 1021.7 1021.2 1.6
18/08:04pm 10.8 8.5 10.5 98 0.2 S 13 17 7 9 1021.6 1021.1 1.6
18/08:00pm 10.8 8.5 10.5 98 0.2 S 13 19 7 10 1021.7 1021.2 1.6
18/07:56pm 10.7 8.0 10.4 98 0.2 SSW 15 22 8 12 1021.7 1021.2 1.6
18/07:46pm 10.7 7.3 10.4 98 0.2 S 19 26 10 14 1022.0 1021.6 1.6
18/07:42pm 11.0 8.4 10.7 98 0.2 SSW 15 24 8 13 1021.8 1021.4 1.6
18/07:30pm 11.7 9.3 11.4 98 0.2 SW 15 20 8 11 1021.4 1020.9 1.6
18/07:00pm 12.8 10.4 11.4 91 0.8 WSW 15 20 8 11 1021.3 1020.8 1.6
18/06:30pm 12.3 10.5 10.7 90 0.9 NW 11 13 6 7 1020.4 1019.9 1.6
18/06:00pm 12.3 9.8 11.0 92 0.7 NW 15 20 8 11 1020.0 1019.6 1.6
18/05:30pm 12.2 10.3 11.7 97 0.3 NW 13 19 7 10 1019.5 1019.0 1.6
18/05:00pm 12.3 9.4 11.0 92 0.7 NNW 17 24 9 13 1019.2 1018.7 1.4
18/04:30pm 12.5 9.3 10.0 85 1.3 NW 17 20 9 11 1019.6 1019.1 1.0
18/04:00pm 14.3 10.8 7.1 62 3.6 NW 15 20 8 11 1019.2 1018.7 0.2
18/03:30pm 17.1 12.2 2.3 37 6.9 WNW 17 26 9 14 1018.1 1017.6 0.0
18/03:00pm 17.5 12.6 2.3 36 7.1 NNW 17 24 9 13 1017.6 1017.1 0.0
18/02:30pm 17.3 12.0 1.7 35 7.2 NW 19 26 10 14 1017.7 1017.2 0.0
18/02:00pm 17.3 12.9 2.5 37 6.9 NNW 15 22 8 12 1017.3 1016.8 0.0
18/01:30pm 15.7 10.2 4.1 46 5.5 NW 22 35 12 19 1018.4 1017.9 0.0
18/01:00pm 16.9 11.1 2.5 38 6.7 NNW 22 32 12 17 1018.6 1018.1 0.0
18/12:30pm 16.8 10.9 1.7 36 6.9 NNW 22 35 12 19 1019.0 1018.5 0.0
18/12:00pm 16.6 10.5 0.7 34 7.1 N 22 32 12 17 1019.0 1018.5 0.0
18/11:30am 16.1 11.0 1.0 36 6.8 NNW 17 24 9 13 1019.7 1019.2 0.0
18/11:00am 15.8 10.8 1.2 37 6.5 N 17 24 9 13 1019.9 1019.4 0.0
18/10:30am 15.4 9.7 0.4 36 6.6 N 20 28 11 15 1020.7 1020.2 0.0
18/10:00am 15.0 8.4 -0.3 35 6.6 N 24 33 13 18 1020.7 1020.2 0.0
18/09:30am 14.7 8.9 -0.2 36 6.4 N 20 28 11 15 1020.8 1020.3 0.0
18/09:00am 14.6 7.2 -0.7 35 6.5 N 28 41 15 22 1020.7 1020.2 0.0
18/08:30am 14.5 7.8 -1.2 34 6.6 N 24 35 13 19 1020.2 1019.8 0.0
18/08:00am 14.4 8.4 -1.2 34 6.6 N 20 30 11 16 1019.8 1019.3 0.0
18/07:30am 14.3 8.9 -1.3 34 6.5 N 17 24 9 13 1019.8 1019.3 0.0
18/07:00am 13.8 8.4 -1.4 35 6.3 NNW 17 24 9 13 1019.7 1019.2 0.0
18/06:30am 14.0 7.6 -1.6 34 6.5 N 22 33 12 18 1018.6 1018.1 0.0
18/06:00am 14.1 6.6 -1.5 34 6.5 NNE 28 39 15 21 1018.8 1018.3 0.0
18/05:30am 13.9 7.5 -1.7 34 6.5 NNE 22 32 12 17 1018.9 1018.4 0.0
18/05:00am 13.7 7.4 -1.1 36 6.2 NNE 22 32 12 17 1019.2 1018.7 0.0
18/04:30am 13.9 7.2 -1.3 35 6.4 N 24 37 13 20 1019.4 1018.9 0.0
18/04:00am 13.8 7.1 -1.4 35 6.3 N 24 37 13 20 1019.4 1018.9 0.0
18/03:30am 13.7 7.4 -1.1 36 6.2 N 22 30 12 16 1019.4 1018.9 0.0
18/03:00am 13.6 6.9 -1.2 36 6.2 NNE 24 39 13 21 1018.5 1018.0 0.0
18/02:30am 14.2 7.5 -1.4 34 6.5 NNE 24 37 13 20 1019.2 1018.7 0.0
18/02:00am 14.1 7.8 -1.1 35 6.4 NNE 22 33 12 18 1019.2 1018.7 0.0
18/01:30am 13.8 8.1 -1.0 36 6.2 NNE 19 24 10 13 1020.1 1019.7 0.0
18/01:00am 14.0 8.0 -1.2 35 6.4 NNE 20 26 11 14 1020.0 1019.6 0.0
18/12:30am 14.0 8.2 -1.2 35 6.4 NNE 19 28 10 15 1020.1 1019.7 0.0
18/12:00am 13.8 8.1 -1.0 36 6.2 NNE 19 26 10 14 1020.1 1019.7 0.0
 
Date/Time
WST
Temp
°C
App
Temp
°C
Dew
Point
°C
Rel
Hum
%
Delta-T
°C
Wind Press
QNH
hPa
Press
MSL
hPa
Rain since
9am
mm
Dir  Spd
km/h
Gust
km/h
Spd
kts
Gust
kts
17/11:30pm 13.5 7.8 -0.9 37 6.1 NNE 19 22 10 12 1020.6 1020.1 0.0
17/11:00pm 13.3 8.0 -0.7 38 5.9 NNE 17 20 9 11 1020.9 1020.4 0.0
17/10:30pm 12.7 7.8 -0.2 41 5.5 NE 15 19 8 10 1021.2 1020.7 0.0
17/10:00pm 13.6 8.8 -0.1 39 5.8 NE 15 20 8 11 1021.4 1020.9 0.0
17/09:30pm 14.5 9.6 -0.4 36 6.4 NE 15 22 8 12 1021.5 1021.0 0.0
17/09:00pm 14.6 9.3 -0.7 35 6.5 NE 17 22 9 12 1021.2 1020.7 0.0
17/08:30pm 15.3 10.4 -0.4 34 6.8 NE 15 19 8 10 1021.8 1021.4 0.0
17/08:00pm 15.4 10.8 -0.8 33 6.9 NE 13 19 7 10 1021.8 1021.4 0.0
17/07:30pm 15.2 10.7 -0.1 35 6.6 NE 13 15 7 8 1021.6 1021.1 0.0
17/07:00pm 15.4 11.3 0.0 35 6.7 NE 11 13 6 7 1021.6 1021.1 0.0
17/06:30pm 16.0 11.6 0.2 34 7.0 NE 13 15 7 8 1021.5 1021.0 0.0
17/06:00pm 16.7 12.7 0.4 33 7.2 NE 11 11 6 6 1021.4 1020.9 0.0
17/05:30pm 18.2 14.6 0.4 30 8.0 ENE 9 11 5 6 1021.2 1020.7 0.0
17/05:00pm 20.6 16.6 0.4 26 9.3 NE 11 15 6 8 1021.2 1020.7 0.0
17/04:30pm 21.7 17.3 0.3 24 9.9 NE 13 20 7 11 1021.2 1020.7 0.0
17/04:00pm 22.2 17.4 0.1 23 10.2 NE 15 24 8 13 1021.3 1020.8 0.0
17/03:30pm 23.0 18.7 0.8 23 10.5 NNE 13 19 7 10 1021.5 1021.0 0.0
17/03:00pm 22.9 17.8 0.7 23 10.4 N 17 24 9 13 1021.5 1021.0 0.0
17/02:30pm 22.8 17.2 0.0 22 10.6 N 19 26 10 14 1021.4 1020.9 0.0
17/02:00pm 23.0 17.9 0.8 23 10.4 NNE 17 26 9 14 1021.4 1020.9 0.0
17/01:30pm 22.1 17.1 1.2 25 9.9 NNE 17 26 9 14 1021.9 1021.5 0.0
17/01:00pm 21.7 16.3 1.4 26 9.6 NNE 19 26 10 14 1022.3 1021.9 0.0
17/12:30pm 20.9 14.9 1.2 27 9.2 NNE 22 32 12 17 1022.9 1022.4 0.0
17/12:00pm 20.5 14.2 1.4 28 8.9 NNE 24 33 13 18 1023.4 1022.9 0.0
17/11:30am 19.3 13.0 1.8 31 8.2 NNE 24 33 13 18 1024.0 1023.6 0.0
17/11:00am 19.2 13.8 2.6 33 7.8 NNE 20 28 11 15 1024.4 1024.0 0.0
17/10:30am 17.8 11.8 3.3 38 6.9 NE 24 33 13 18 1024.8 1024.3 0.0
17/10:00am 16.5 10.9 3.6 42 6.1 NNE 22 33 12 18 1025.2 1024.7 0.0
17/09:30am 14.9 9.6 4.9 51 4.8 NE 22 35 12 19 1025.4 1025.0 0.0
17/09:00am 13.4 7.7 5.1 57 3.9 NNE 24 32 13 17 1025.5 1025.1 0.0
17/08:30am 11.8 6.8 4.5 61 3.4 NNE 20 30 11 16 1025.6 1025.2 0.0
17/08:00am 10.5 6.5 5.1 69 2.5 NE 15 19 8 10 1025.5 1025.1 0.0
17/07:30am 8.3 4.7 4.9 79 1.6 NNE 13 19 7 10 1025.6 1025.2 0.0
17/07:00am 6.5 3.2 4.3 86 1.0 NNE 11 15 6 8 1025.2 1024.7 0.0
17/06:30am 6.3 2.5 4.1 86 1.0 NE 13 15 7 8 1024.9 1024.4 0.0
17/06:00am 6.9 3.2 4.4 84 1.1 NNE 13 17 7 9 1024.5 1024.1 0.0
17/05:30am 6.2 2.8 4.2 87 0.9 NNE 11 15 6 8 1024.5 1024.1 0.0
17/05:00am 6.0 2.2 3.8 86 1.0 NE 13 15 7 8 1024.5 1024.1 0.0
17/04:30am 6.0 2.5 3.5 84 1.1 NE 11 15 6 8 1024.4 1024.0 0.0
17/04:00am 6.7 2.9 3.9 82 1.2 NE 13 15 7 8 1024.8 1024.3 0.0
17/03:30am 7.2 3.8 3.8 79 1.5 NE 11 15 6 8 1024.8 1024.3 0.0
17/03:00am 8.1 4.3 3.8 74 1.9 NE 13 17 7 9 1024.9 1024.4 0.0
17/02:30am 8.9 4.7 3.9 71 2.2 NE 15 19 8 10 1025.1 1024.6 0.0
17/02:00am 8.0 4.5 3.7 74 1.9 NE 11 15 6 8 1025.2 1024.7 0.0
17/01:30am 8.5 4.6 3.6 71 2.2 NE 13 17 7 9 1025.4 1025.0 0.0
17/01:00am 8.6 5.1 3.6 71 2.2 NE 11 17 6 9 1025.5 1025.1 0.0
17/12:30am 8.4 5.3 3.5 71 2.2 ENE 9 13 5 7 1025.7 1025.3 0.0
17/12:00am 8.6 5.4 3.0 68 2.4 ENE 9 9 5 5 1025.8 1025.4 0.0
 
Date/Time
WST
Temp
°C
App
Temp
°C
Dew
Point
°C
Rel
Hum
%
Delta-T
°C
Wind Press
QNH
hPa
Press
MSL
hPa
Rain since
9am
mm
Dir  Spd
km/h
Gust
km/h
Spd
kts
Gust
kts
16/11:30pm 8.9 5.7 2.9 66 2.6 E 9 11 5 6 1025.8 1025.4 0.0
16/11:00pm 8.7 5.9 2.9 67 2.5 ENE 7 11 4 6 1025.9 1025.5 0.0
16/10:30pm 8.7 5.5 2.9 67 2.5 ENE 9 9 5 5 1025.9 1025.5 0.0
16/10:00pm 9.4 6.1 2.7 63 2.9 ENE 9 11 5 6 1025.9 1025.5 0.0
16/09:30pm 10.3 6.7 2.9 60 3.3 ENE 11 13 6 7 1025.9 1025.5 0.0
16/09:00pm 10.4 7.1 2.7 59 3.4 ENE 9 15 5 8 1026.0 1025.6 0.0
16/08:30pm 10.7 7.0 2.5 57 3.6 ENE 11 13 6 7 1025.9 1025.5 0.0
16/08:00pm 11.4 7.8 2.7 55 3.9 ENE 11 13 6 7 1025.8 1025.4 0.0
16/07:30pm 11.6 8.3 2.4 53 4.1 ENE 9 11 5 6 1025.6 1025.2 0.0
16/07:00pm 12.4 9.0 2.0 49 4.6 ENE 9 11 5 6 1025.4 1025.0 0.0
16/06:30pm 13.6 10.3 2.2 46 5.1 ENE 9 11 5 6 1025.2 1024.7 0.0
16/06:00pm 14.5 10.8 2.4 44 5.5 ENE 11 15 6 8 1025.0 1024.5 0.0
16/05:30pm 15.9 12.5 1.6 38 6.5 ENE 9 11 5 6 1024.9 1024.4 0.0
16/05:00pm 17.7 13.5 1.7 34 7.3 NE 13 19 7 10 1024.8 1024.3 0.0
16/04:30pm 18.6 13.2 1.2 31 8.0 NNE 19 24 10 13 1024.8 1024.3 0.0
16/04:00pm 19.2 14.3 1.7 31 8.1 NE 17 24 9 13 1024.8 1024.3 0.0
16/03:30pm 19.7 15.0 3.0 33 8.0 NE 17 26 9 14 1024.8 1024.3 0.0
16/03:00pm 19.6 14.9 2.9 33 8.0 ENE 17 24 9 13 1024.9 1024.4 0.0
16/02:30pm 19.3 14.5 2.6 33 7.9 NE 17 26 9 14 1025.2 1024.7 0.0
16/02:00pm 19.3 14.7 3.5 35 7.6 ENE 17 24 9 13 1025.3 1024.9 0.0
16/01:30pm 19.1 13.8 2.9 34 7.7 NE 20 32 11 17 1025.7 1025.3 0.0
16/01:00pm 19.1 13.5 3.7 36 7.4 ENE 22 32 12 17 1026.0 1025.6 0.0
16/12:30pm 18.1 12.6 3.9 39 6.9 ENE 22 35 12 19 1026.6 1026.2 0.0
16/12:00pm 17.4 12.4 4.7 43 6.2 ENE 20 30 11 16 1026.9 1026.4 0.0
16/11:30am 17.7 13.0 5.3 44 6.1 NE 19 30 10 16 1027.5 1027.1 0.0
16/11:00am 16.9 10.8 4.9 45 5.8 ENE 26 39 14 21 1027.9 1027.5 0.0
16/10:30am 16.3 11.1 5.6 49 5.3 NE 22 32 12 17 1028.2 1027.8 0.0
16/10:00am 15.0 9.4 5.5 53 4.6 ENE 24 32 13 17 1028.4 1028.0 0.0
16/09:30am 14.2 8.3 5.8 57 4.1 ENE 26 33 14 18 1028.5 1028.1 0.0
16/09:00am 12.7 7.6 6.1 64 3.2 ENE 22 37 12 20 1028.3 1027.9 0.0
16/08:30am 11.2 6.6 5.7 69 2.6 ENE 19 26 10 14 1028.0 1027.6 0.0
16/08:00am 8.3 5.0 4.5 77 1.7 ENE 11 17 6 9 1027.9 1027.5 0.0
16/07:30am 5.6 3.1 3.8 88 0.8 ENE 6 7 3 4 1027.8 1027.4 0.0
16/07:00am 3.2 0.2 2.2 93 0.4 E 7 9 4 5 1027.6 1027.2 0.0
16/06:30am 4.1 1.2 2.5 89 0.7 E 7 9 4 5 1027.4 1027.0 0.0
16/06:00am 4.5 1.2 2.7 88 0.7 E 9 11 5 6 1027.0 1026.6 0.0
16/05:30am 3.4 0.5 1.6 88 0.7 E 6 7 3 4 1027.0 1026.6 0.0
16/05:00am 4.5 1.8 2.5 87 0.8 E 6 7 3 4 1026.9 1026.4 0.0
16/04:30am 4.9 2.0 2.6 85 1.0 ENE 7 9 4 5 1026.9 1026.4 0.0
16/04:00am 5.2 2.0 2.9 85 1.0 ENE 9 11 5 6 1026.6 1026.2 0.0
16/03:30am 5.3 2.1 2.8 84 1.1 ENE 9 11 5 6 1026.5 1026.1 0.0
16/03:00am 5.2 1.9 2.2 81 1.2 NE 9 9 5 5 1026.6 1026.2 0.0
16/02:30am 5.9 2.6 2.5 79 1.4 ENE 9 9 5 5 1026.5 1026.1 0.0
16/02:00am 5.8 2.8 2.3 78 1.5 ENE 7 9 4 5 1026.6 1026.2 0.0
16/01:30am 6.9 4.0 2.6 74 1.8 ENE 7 9 4 5 1026.9 1026.4 0.0
16/01:00am 6.8 3.5 2.5 74 1.8 ENE 9 9 5 5 1026.9 1026.4 0.0
16/12:30am 7.4 4.1 2.5 71 2.1 ENE 9 11 5 6 1026.9 1026.4 0.0
16/12:00am 8.1 4.8 2.6 68 2.4 ENE 9 11 5 6 1027.0 1026.6 0.0
 
Date/Time
WST
Temp
°C
App
Temp
°C
Dew
Point
°C
Rel
Hum
%
Delta-T
°C
Wind Press
QNH
hPa
Press
MSL
hPa
Rain since
9am
mm
Dir  Spd
km/h
Gust
km/h
Spd
kts
Gust
kts
15/11:30pm 8.4 4.7 2.6 67 2.5 ENE 11 13 6 7 1027.3 1026.9 0.0
15/11:00pm 7.9 4.5 2.0 66 2.5 NE 9 11 5 6 1027.5 1027.1 0.0
15/10:30pm 8.9 5.5 2.0 62 3.0 E 9 11 5 6 1027.3 1026.9 0.0
15/10:00pm 9.5 6.1 1.9 59 3.3 ENE 9 11 5 6 1027.3 1026.9 0.0
15/09:30pm 10.1 6.3 2.0 57 3.5 E 11 13 6 7 1027.3 1026.9 0.0

Other Formats:

Comma delimited format used in spreadsheet applications
http://www.bom.gov.au/fwo/IDW60801/IDW60801.95448.axf

JavaScript Object Notation format (JSON) in row-major order
http://www.bom.gov.au/fwo/IDW60801/IDW60801.95448.json